sensor_id;sensor_type;location;lat;lon;timestamp;P1;durP1;ratioP1;P2;durP2;ratioP2
59474;SDS011;45288;51.136;16.928;2023-01-15T00:00:38;4.97;;;2.20;;
59474;SDS011;45288;51.136;16.928;2023-01-15T00:03:04;3.95;;;2.35;;
59474;SDS011;45288;51.136;16.928;2023-01-15T00:05:29;4.60;;;2.30;;
59474;SDS011;45288;51.136;16.928;2023-01-15T00:07:55;4.93;;;2.30;;
59474;SDS011;45288;51.136;16.928;2023-01-15T00:10:20;4.47;;;2.30;;
59474;SDS011;45288;51.136;16.928;2023-01-15T00:12:46;3.75;;;2.30;;
59474;SDS011;45288;51.136;16.928;2023-01-15T00:15:12;4.22;;;2.40;;
59474;SDS011;45288;51.136;16.928;2023-01-15T00:17:38;3.87;;;2.13;;
59474;SDS011;45288;51.136;16.928;2023-01-15T00:20:03;4.25;;;2.33;;
59474;SDS011;45288;51.136;16.928;2023-01-15T00:22:29;4.10;;;2.25;;
59474;SDS011;45288;51.136;16.928;2023-01-15T00:24:55;4.57;;;2.20;;
59474;SDS011;45288;51.136;16.928;2023-01-15T00:27:39;3.47;;;2.30;;
59474;SDS011;45288;51.136;16.928;2023-01-15T00:30:12;4.47;;;2.28;;
59474;SDS011;45288;51.136;16.928;2023-01-15T00:32:41;3.83;;;2.17;;
59474;SDS011;45288;51.136;16.928;2023-01-15T00:35:10;3.43;;;2.10;;
59474;SDS011;45288;51.136;16.928;2023-01-15T00:37:36;3.33;;;2.03;;
59474;SDS011;45288;51.136;16.928;2023-01-15T00:40:02;3.15;;;2.08;;
59474;SDS011;45288;51.136;16.928;2023-01-15T00:42:28;3.63;;;2.10;;
59474;SDS011;45288;51.136;16.928;2023-01-15T00:44:53;4.30;;;1.80;;
59474;SDS011;45288;51.136;16.928;2023-01-15T00:47:19;4.13;;;2.00;;
59474;SDS011;45288;51.136;16.928;2023-01-15T00:49:46;4.65;;;1.90;;
59474;SDS011;45288;51.136;16.928;2023-01-15T00:52:13;3.10;;;1.90;;
59474;SDS011;45288;51.136;16.928;2023-01-15T00:54:39;2.90;;;1.83;;
59474;SDS011;45288;51.136;16.928;2023-01-15T00:57:05;2.65;;;1.85;;
59474;SDS011;45288;51.136;16.928;2023-01-15T00:59:31;3.20;;;2.00;;
59474;SDS011;45288;51.136;16.928;2023-01-15T01:01:56;3.88;;;2.10;;
59474;SDS011;45288;51.136;16.928;2023-01-15T01:04:22;3.37;;;2.20;;
59474;SDS011;45288;51.136;16.928;2023-01-15T01:06:48;4.65;;;2.40;;
59474;SDS011;45288;51.136;16.928;2023-01-15T01:09:14;3.93;;;2.40;;
59474;SDS011;45288;51.136;16.928;2023-01-15T01:11:40;4.45;;;2.38;;
59474;SDS011;45288;51.136;16.928;2023-01-15T01:14:05;3.90;;;2.40;;
59474;SDS011;45288;51.136;16.928;2023-01-15T01:16:32;3.22;;;2.28;;
59474;SDS011;45288;51.136;16.928;2023-01-15T01:19:35;3.65;;;2.45;;
59474;SDS011;45288;51.136;16.928;2023-01-15T01:21:53;4.28;;;2.83;;
59474;SDS011;45288;51.136;16.928;2023-01-15T01:24:20;4.47;;;2.33;;
59474;SDS011;45288;51.136;16.928;2023-01-15T01:26:46;3.85;;;2.67;;
59474;SDS011;45288;51.136;16.928;2023-01-15T01:29:13;5.07;;;2.67;;
59474;SDS011;45288;51.136;16.928;2023-01-15T01:31:39;4.57;;;2.70;;
59474;SDS011;45288;51.136;16.928;2023-01-15T01:34:05;6.33;;;3.20;;
59474;SDS011;45288;51.136;16.928;2023-01-15T01:36:35;4.32;;;2.70;;
59474;SDS011;45288;51.136;16.928;2023-01-15T01:39:01;3.58;;;2.58;;
59474;SDS011;45288;51.136;16.928;2023-01-15T01:41:27;4.28;;;2.60;;
59474;SDS011;45288;51.136;16.928;2023-01-15T01:46:18;3.95;;;2.85;;
59474;SDS011;45288;51.136;16.928;2023-01-15T01:48:44;4.88;;;2.63;;
59474;SDS011;45288;51.136;16.928;2023-01-15T01:51:11;3.08;;;2.63;;
59474;SDS011;45288;51.136;16.928;2023-01-15T01:53:37;5.57;;;2.97;;
59474;SDS011;45288;51.136;16.928;2023-01-15T01:56:03;4.50;;;2.90;;
59474;SDS011;45288;51.136;16.928;2023-01-15T01:58:31;3.85;;;3.00;;
59474;SDS011;45288;51.136;16.928;2023-01-15T02:00:58;3.58;;;3.10;;
59474;SDS011;45288;51.136;16.928;2023-01-15T02:03:25;4.97;;;3.20;;
59474;SDS011;45288;51.136;16.928;2023-01-15T02:05:53;4.22;;;2.97;;
59474;SDS011;45288;51.136;16.928;2023-01-15T02:08:20;4.38;;;2.97;;
59474;SDS011;45288;51.136;16.928;2023-01-15T02:10:47;3.40;;;2.80;;
59474;SDS011;45288;51.136;16.928;2023-01-15T02:13:57;5.15;;;2.72;;
59474;SDS011;45288;51.136;16.928;2023-01-15T02:16:14;4.33;;;3.03;;
59474;SDS011;45288;51.136;16.928;2023-01-15T02:21:23;4.15;;;2.70;;
59474;SDS011;45288;51.136;16.928;2023-01-15T02:24:10;3.22;;;2.15;;
59474;SDS011;45288;51.136;16.928;2023-01-15T02:32:17;3.97;;;2.10;;
59474;SDS011;45288;51.136;16.928;2023-01-15T02:34:49;3.72;;;2.10;;
59474;SDS011;45288;51.136;16.928;2023-01-15T02:37:19;4.37;;;2.13;;
59474;SDS011;45288;51.136;16.928;2023-01-15T02:39:45;2.80;;;2.20;;
59474;SDS011;45288;51.136;16.928;2023-01-15T02:42:13;3.03;;;1.90;;
59474;SDS011;45288;51.136;16.928;2023-01-15T02:44:46;2.67;;;2.17;;
59474;SDS011;45288;51.136;16.928;2023-01-15T02:47:14;3.33;;;2.20;;
59474;SDS011;45288;51.136;16.928;2023-01-15T02:49:41;2.45;;;2.13;;
59474;SDS011;45288;51.136;16.928;2023-01-15T02:52:14;2.72;;;1.95;;
59474;SDS011;45288;51.136;16.928;2023-01-15T02:54:42;4.13;;;2.25;;
59474;SDS011;45288;51.136;16.928;2023-01-15T02:57:09;2.90;;;2.05;;
59474;SDS011;45288;51.136;16.928;2023-01-15T02:59:39;3.43;;;2.27;;
59474;SDS011;45288;51.136;16.928;2023-01-15T03:02:08;3.20;;;2.20;;
59474;SDS011;45288;51.136;16.928;2023-01-15T03:04:43;3.67;;;2.30;;
59474;SDS011;45288;51.136;16.928;2023-01-15T03:07:22;3.40;;;2.40;;
59474;SDS011;45288;51.136;16.928;2023-01-15T03:09:51;2.28;;;1.90;;
59474;SDS011;45288;51.136;16.928;2023-01-15T03:12:25;2.65;;;2.00;;
59474;SDS011;45288;51.136;16.928;2023-01-15T03:15:02;4.10;;;2.10;;
59474;SDS011;45288;51.136;16.928;2023-01-15T03:17:36;2.40;;;2.10;;
59474;SDS011;45288;51.136;16.928;2023-01-15T03:20:08;3.33;;;1.98;;
59474;SDS011;45288;51.136;16.928;2023-01-15T03:22:37;2.83;;;2.00;;
59474;SDS011;45288;51.136;16.928;2023-01-15T03:25:11;2.78;;;1.90;;
59474;SDS011;45288;51.136;16.928;2023-01-15T03:27:42;3.67;;;2.40;;
59474;SDS011;45288;51.136;16.928;2023-01-15T03:30:11;2.40;;;1.80;;
59474;SDS011;45288;51.136;16.928;2023-01-15T03:32:36;2.22;;;1.92;;
59474;SDS011;45288;51.136;16.928;2023-01-15T03:35:04;2.58;;;1.92;;
59474;SDS011;45288;51.136;16.928;2023-01-15T03:37:31;2.72;;;1.92;;
59474;SDS011;45288;51.136;16.928;2023-01-15T03:39:57;2.73;;;1.80;;
59474;SDS011;45288;51.136;16.928;2023-01-15T03:47:28;2.08;;;1.75;;
59474;SDS011;45288;51.136;16.928;2023-01-15T03:52:47;3.15;;;1.70;;
59474;SDS011;45288;51.136;16.928;2023-01-15T03:55:18;2.00;;;1.80;;
59474;SDS011;45288;51.136;16.928;2023-01-15T03:58:01;2.67;;;1.90;;
59474;SDS011;45288;51.136;16.928;2023-01-15T04:00:52;2.30;;;1.77;;
59474;SDS011;45288;51.136;16.928;2023-01-15T04:03:21;2.65;;;1.52;;
59474;SDS011;45288;51.136;16.928;2023-01-15T04:05:48;2.30;;;1.63;;
59474;SDS011;45288;51.136;16.928;2023-01-15T04:08:15;2.83;;;1.90;;
59474;SDS011;45288;51.136;16.928;2023-01-15T04:10:50;2.33;;;1.67;;
59474;SDS011;45288;51.136;16.928;2023-01-15T04:13:16;2.38;;;1.60;;
59474;SDS011;45288;51.136;16.928;2023-01-15T04:15:42;1.70;;;1.43;;
59474;SDS011;45288;51.136;16.928;2023-01-15T04:18:08;1.40;;;1.30;;
59474;SDS011;45288;51.136;16.928;2023-01-15T04:20:34;1.88;;;1.50;;
59474;SDS011;45288;51.136;16.928;2023-01-15T04:23:00;2.40;;;1.42;;
59474;SDS011;45288;51.136;16.928;2023-01-15T04:25:25;2.00;;;1.67;;
59474;SDS011;45288;51.136;16.928;2023-01-15T04:27:54;3.53;;;1.67;;
59474;SDS011;45288;51.136;16.928;2023-01-15T04:30:20;2.20;;;1.48;;
59474;SDS011;45288;51.136;16.928;2023-01-15T04:32:49;2.50;;;1.60;;
59474;SDS011;45288;51.136;16.928;2023-01-15T04:35:15;2.78;;;1.50;;
59474;SDS011;45288;51.136;16.928;2023-01-15T04:37:40;3.35;;;1.77;;
59474;SDS011;45288;51.136;16.928;2023-01-15T04:40:06;3.80;;;1.70;;
59474;SDS011;45288;51.136;16.928;2023-01-15T04:42:32;4.05;;;1.70;;
59474;SDS011;45288;51.136;16.928;2023-01-15T04:45:16;2.35;;;1.50;;
59474;SDS011;45288;51.136;16.928;2023-01-15T04:47:42;3.10;;;1.52;;
59474;SDS011;45288;51.136;16.928;2023-01-15T04:50:08;2.90;;;1.60;;
59474;SDS011;45288;51.136;16.928;2023-01-15T04:52:35;2.65;;;1.50;;
59474;SDS011;45288;51.136;16.928;2023-01-15T04:55:00;1.95;;;1.60;;
59474;SDS011;45288;51.136;16.928;2023-01-15T04:57:26;2.40;;;1.60;;
59474;SDS011;45288;51.136;16.928;2023-01-15T04:59:52;2.63;;;1.67;;
59474;SDS011;45288;51.136;16.928;2023-01-15T05:02:18;2.20;;;1.63;;
59474;SDS011;45288;51.136;16.928;2023-01-15T05:04:43;3.57;;;1.83;;
59474;SDS011;45288;51.136;16.928;2023-01-15T05:07:09;3.50;;;1.80;;
59474;SDS011;45288;51.136;16.928;2023-01-15T05:09:34;2.05;;;1.60;;
59474;SDS011;45288;51.136;16.928;2023-01-15T05:12:00;2.83;;;1.83;;
59474;SDS011;45288;51.136;16.928;2023-01-15T05:14:26;2.43;;;1.60;;
59474;SDS011;45288;51.136;16.928;2023-01-15T05:16:52;2.10;;;1.70;;
59474;SDS011;45288;51.136;16.928;2023-01-15T05:19:17;2.28;;;1.80;;
59474;SDS011;45288;51.136;16.928;2023-01-15T05:21:43;3.53;;;1.90;;
59474;SDS011;45288;51.136;16.928;2023-01-15T05:24:12;2.05;;;1.67;;
59474;SDS011;45288;51.136;16.928;2023-01-15T05:26:38;2.87;;;2.10;;
59474;SDS011;45288;51.136;16.928;2023-01-15T05:29:03;2.40;;;1.80;;
59474;SDS011;45288;51.136;16.928;2023-01-15T05:31:29;3.57;;;2.10;;
59474;SDS011;45288;51.136;16.928;2023-01-15T05:33:55;4.28;;;2.30;;
59474;SDS011;45288;51.136;16.928;2023-01-15T05:36:22;3.08;;;1.95;;
59474;SDS011;45288;51.136;16.928;2023-01-15T05:38:48;2.72;;;1.85;;
59474;SDS011;45288;51.136;16.928;2023-01-15T05:41:15;3.70;;;1.98;;
59474;SDS011;45288;51.136;16.928;2023-01-15T05:44:01;2.50;;;1.80;;
59474;SDS011;45288;51.136;16.928;2023-01-15T05:46:27;3.92;;;2.10;;
59474;SDS011;45288;51.136;16.928;2023-01-15T05:48:53;4.33;;;2.67;;
59474;SDS011;45288;51.136;16.928;2023-01-15T05:51:18;4.80;;;2.33;;
59474;SDS011;45288;51.136;16.928;2023-01-15T05:53:44;4.20;;;2.27;;
59474;SDS011;45288;51.136;16.928;2023-01-15T05:56:10;3.28;;;2.17;;
59474;SDS011;45288;51.136;16.928;2023-01-15T05:58:35;3.28;;;2.10;;
59474;SDS011;45288;51.136;16.928;2023-01-15T06:01:05;2.43;;;1.87;;
59474;SDS011;45288;51.136;16.928;2023-01-15T06:03:30;3.63;;;1.93;;
59474;SDS011;45288;51.136;16.928;2023-01-15T06:05:56;2.25;;;1.73;;
59474;SDS011;45288;51.136;16.928;2023-01-15T06:08:22;2.00;;;1.60;;
59474;SDS011;45288;51.136;16.928;2023-01-15T06:10:48;2.47;;;1.90;;
59474;SDS011;45288;51.136;16.928;2023-01-15T06:13:14;2.10;;;1.80;;
59474;SDS011;45288;51.136;16.928;2023-01-15T06:15:40;3.00;;;1.98;;
59474;SDS011;45288;51.136;16.928;2023-01-15T06:18:05;2.45;;;1.95;;
59474;SDS011;45288;51.136;16.928;2023-01-15T06:20:33;3.17;;;2.00;;
59474;SDS011;45288;51.136;16.928;2023-01-15T06:22:59;2.25;;;1.80;;
59474;SDS011;45288;51.136;16.928;2023-01-15T06:25:25;2.60;;;2.00;;
59474;SDS011;45288;51.136;16.928;2023-01-15T06:27:50;1.90;;;1.67;;
59474;SDS011;45288;51.136;16.928;2023-01-15T06:30:16;1.90;;;1.70;;
59474;SDS011;45288;51.136;16.928;2023-01-15T06:32:42;1.73;;;1.50;;
59474;SDS011;45288;51.136;16.928;2023-01-15T06:35:07;2.10;;;1.60;;
59474;SDS011;45288;51.136;16.928;2023-01-15T06:37:33;2.67;;;1.70;;
59474;SDS011;45288;51.136;16.928;2023-01-15T06:39:59;3.30;;;1.97;;
59474;SDS011;45288;51.136;16.928;2023-01-15T06:42:24;2.83;;;1.80;;
59474;SDS011;45288;51.136;16.928;2023-01-15T06:45:09;2.17;;;1.80;;
59474;SDS011;45288;51.136;16.928;2023-01-15T06:47:53;2.10;;;1.83;;
59474;SDS011;45288;51.136;16.928;2023-01-15T06:50:19;3.30;;;2.00;;
59474;SDS011;45288;51.136;16.928;2023-01-15T06:52:44;2.05;;;1.73;;
59474;SDS011;45288;51.136;16.928;2023-01-15T06:55:10;1.73;;;1.60;;
59474;SDS011;45288;51.136;16.928;2023-01-15T06:57:39;2.03;;;1.40;;
59474;SDS011;45288;51.136;16.928;2023-01-15T07:00:06;3.80;;;1.40;;
59474;SDS011;45288;51.136;16.928;2023-01-15T07:02:32;1.20;;;1.10;;
59474;SDS011;45288;51.136;16.928;2023-01-15T07:04:58;1.67;;;1.10;;
59474;SDS011;45288;51.136;16.928;2023-01-15T07:07:23;1.90;;;1.10;;
59474;SDS011;45288;51.136;16.928;2023-01-15T07:09:49;1.92;;;1.25;;
59474;SDS011;45288;51.136;16.928;2023-01-15T07:12:15;2.10;;;1.00;;
59474;SDS011;45288;51.136;16.928;2023-01-15T07:14:40;0.98;;;0.98;;
59474;SDS011;45288;51.136;16.928;2023-01-15T07:17:06;2.30;;;1.20;;
59474;SDS011;45288;51.136;16.928;2023-01-15T07:19:31;1.17;;;1.08;;
59474;SDS011;45288;51.136;16.928;2023-01-15T07:21:57;1.20;;;1.10;;
59474;SDS011;45288;51.136;16.928;2023-01-15T07:24:23;1.40;;;1.00;;
59474;SDS011;45288;51.136;16.928;2023-01-15T07:26:48;1.13;;;1.03;;
59474;SDS011;45288;51.136;16.928;2023-01-15T07:29:14;1.30;;;1.00;;
59474;SDS011;45288;51.136;16.928;2023-01-15T07:31:40;0.93;;;0.90;;
59474;SDS011;45288;51.136;16.928;2023-01-15T07:34:05;1.80;;;1.20;;
59474;SDS011;45288;51.136;16.928;2023-01-15T07:36:31;1.98;;;1.70;;
59474;SDS011;45288;51.136;16.928;2023-01-15T07:38:57;2.40;;;1.83;;
59474;SDS011;45288;51.136;16.928;2023-01-15T07:41:23;2.72;;;2.08;;
59474;SDS011;45288;51.136;16.928;2023-01-15T07:44:09;3.03;;;2.03;;
59474;SDS011;45288;51.136;16.928;2023-01-15T07:46:53;2.40;;;2.00;;
59474;SDS011;45288;51.136;16.928;2023-01-15T07:49:39;4.28;;;2.38;;
59474;SDS011;45288;51.136;16.928;2023-01-15T07:52:13;3.35;;;2.65;;
59474;SDS011;45288;51.136;16.928;2023-01-15T07:54:39;4.43;;;2.95;;
59474;SDS011;45288;51.136;16.928;2023-01-15T07:57:05;4.63;;;3.10;;
59474;SDS011;45288;51.136;16.928;2023-01-15T07:59:31;3.88;;;2.95;;
59474;SDS011;45288;51.136;16.928;2023-01-15T08:01:57;3.60;;;2.60;;
59474;SDS011;45288;51.136;16.928;2023-01-15T08:04:22;3.80;;;2.50;;
59474;SDS011;45288;51.136;16.928;2023-01-15T08:06:48;3.07;;;2.23;;
59474;SDS011;45288;51.136;16.928;2023-01-15T08:09:14;2.50;;;2.28;;
59474;SDS011;45288;51.136;16.928;2023-01-15T08:11:39;3.60;;;2.50;;
59474;SDS011;45288;51.136;16.928;2023-01-15T08:14:23;9.23;;;2.67;;
59474;SDS011;45288;51.136;16.928;2023-01-15T08:17:08;3.47;;;2.33;;
59474;SDS011;45288;51.136;16.928;2023-01-15T08:19:34;4.07;;;2.60;;
59474;SDS011;45288;51.136;16.928;2023-01-15T08:21:59;2.57;;;2.20;;
59474;SDS011;45288;51.136;16.928;2023-01-15T08:24:26;2.95;;;2.58;;
59474;SDS011;45288;51.136;16.928;2023-01-15T08:26:52;2.75;;;2.40;;
59474;SDS011;45288;51.136;16.928;2023-01-15T08:29:17;2.40;;;2.20;;
59474;SDS011;45288;51.136;16.928;2023-01-15T08:31:43;3.90;;;2.65;;
59474;SDS011;45288;51.136;16.928;2023-01-15T08:34:09;3.47;;;2.40;;
59474;SDS011;45288;51.136;16.928;2023-01-15T08:36:36;3.15;;;2.30;;
59474;SDS011;45288;51.136;16.928;2023-01-15T08:39:02;3.55;;;2.53;;
59474;SDS011;45288;51.136;16.928;2023-01-15T08:41:28;4.22;;;2.88;;
59474;SDS011;45288;51.136;16.928;2023-01-15T08:43:54;3.30;;;2.70;;
59474;SDS011;45288;51.136;16.928;2023-01-15T08:46:19;4.30;;;2.90;;
59474;SDS011;45288;51.136;16.928;2023-01-15T08:48:45;3.50;;;2.80;;
59474;SDS011;45288;51.136;16.928;2023-01-15T08:51:11;4.43;;;3.10;;
59474;SDS011;45288;51.136;16.928;2023-01-15T08:53:36;5.53;;;3.15;;
59474;SDS011;45288;51.136;16.928;2023-01-15T08:56:03;3.97;;;2.92;;
59474;SDS011;45288;51.136;16.928;2023-01-15T08:58:29;4.90;;;3.13;;
59474;SDS011;45288;51.136;16.928;2023-01-15T09:00:55;4.30;;;2.80;;
59474;SDS011;45288;51.136;16.928;2023-01-15T09:03:20;4.07;;;3.05;;
59474;SDS011;45288;51.136;16.928;2023-01-15T09:05:46;3.43;;;2.90;;
59474;SDS011;45288;51.136;16.928;2023-01-15T09:08:12;3.65;;;3.10;;
59474;SDS011;45288;51.136;16.928;2023-01-15T09:10:38;4.32;;;3.20;;
59474;SDS011;45288;51.136;16.928;2023-01-15T09:13:03;3.57;;;3.00;;
59474;SDS011;45288;51.136;16.928;2023-01-15T09:15:30;4.50;;;3.35;;
59474;SDS011;45288;51.136;16.928;2023-01-15T09:17:56;3.97;;;3.07;;
59474;SDS011;45288;51.136;16.928;2023-01-15T09:20:22;4.90;;;3.30;;
59474;SDS011;45288;51.136;16.928;2023-01-15T09:22:48;4.35;;;3.25;;
59474;SDS011;45288;51.136;16.928;2023-01-15T09:25:14;4.47;;;3.25;;
59474;SDS011;45288;51.136;16.928;2023-01-15T09:27:45;3.90;;;3.20;;
59474;SDS011;45288;51.136;16.928;2023-01-15T09:30:18;4.20;;;3.00;;
59474;SDS011;45288;51.136;16.928;2023-01-15T09:32:44;3.58;;;3.03;;
59474;SDS011;45288;51.136;16.928;2023-01-15T09:35:09;3.42;;;3.00;;
59474;SDS011;45288;51.136;16.928;2023-01-15T09:37:35;4.13;;;3.00;;
59474;SDS011;45288;51.136;16.928;2023-01-15T09:40:01;4.20;;;3.10;;
59474;SDS011;45288;51.136;16.928;2023-01-15T09:42:49;4.55;;;3.15;;
59474;SDS011;45288;51.136;16.928;2023-01-15T09:48:22;4.00;;;2.90;;
59474;SDS011;45288;51.136;16.928;2023-01-15T09:50:58;4.25;;;3.10;;
59474;SDS011;45288;51.136;16.928;2023-01-15T09:55:55;3.63;;;2.88;;
59474;SDS011;45288;51.136;16.928;2023-01-15T09:58:25;3.95;;;2.95;;
59474;SDS011;45288;51.136;16.928;2023-01-15T10:00:53;4.43;;;3.08;;
59474;SDS011;45288;51.136;16.928;2023-01-15T10:03:32;3.10;;;2.80;;
59474;SDS011;45288;51.136;16.928;2023-01-15T10:06:08;4.03;;;2.90;;
59474;SDS011;45288;51.136;16.928;2023-01-15T10:08:44;3.53;;;2.83;;
59474;SDS011;45288;51.136;16.928;2023-01-15T10:13:43;3.93;;;3.17;;
59474;SDS011;45288;51.136;16.928;2023-01-15T10:16:10;4.13;;;2.90;;
59474;SDS011;45288;51.136;16.928;2023-01-15T10:18:35;3.17;;;2.85;;
59474;SDS011;45288;51.136;16.928;2023-01-15T10:23:33;4.82;;;3.00;;
59474;SDS011;45288;51.136;16.928;2023-01-15T10:26:13;5.13;;;3.33;;
59474;SDS011;45288;51.136;16.928;2023-01-15T10:31:20;3.92;;;2.85;;
59474;SDS011;45288;51.136;16.928;2023-01-15T10:34:11;4.10;;;3.17;;
59474;SDS011;45288;51.136;16.928;2023-01-15T10:36:49;4.20;;;3.10;;
59474;SDS011;45288;51.136;16.928;2023-01-15T10:39:22;4.20;;;3.15;;
59474;SDS011;45288;51.136;16.928;2023-01-15T10:41:59;3.30;;;2.75;;
59474;SDS011;45288;51.136;16.928;2023-01-15T10:47:31;3.47;;;2.80;;
59474;SDS011;45288;51.136;16.928;2023-01-15T10:49:58;3.58;;;2.70;;
59474;SDS011;45288;51.136;16.928;2023-01-15T10:52:26;3.95;;;2.97;;
59474;SDS011;45288;51.136;16.928;2023-01-15T10:54:56;5.05;;;3.25;;
59474;SDS011;45288;51.136;16.928;2023-01-15T11:00:02;5.25;;;3.60;;
59474;SDS011;45288;51.136;16.928;2023-01-15T11:02:31;4.65;;;3.35;;
59474;SDS011;45288;51.136;16.928;2023-01-15T11:04:59;3.90;;;3.00;;
59474;SDS011;45288;51.136;16.928;2023-01-15T11:07:36;4.97;;;3.67;;
59474;SDS011;45288;51.136;16.928;2023-01-15T11:10:04;4.75;;;3.13;;
59474;SDS011;45288;51.136;16.928;2023-01-15T11:12:30;4.50;;;3.22;;
59474;SDS011;45288;51.136;16.928;2023-01-15T11:15:15;5.65;;;3.40;;
59474;SDS011;45288;51.136;16.928;2023-01-15T11:18:07;5.30;;;3.50;;
59474;SDS011;45288;51.136;16.928;2023-01-15T11:21:10;5.28;;;3.55;;
59474;SDS011;45288;51.136;16.928;2023-01-15T11:23:36;4.88;;;3.38;;
59474;SDS011;45288;51.136;16.928;2023-01-15T11:26:01;5.77;;;3.23;;
59474;SDS011;45288;51.136;16.928;2023-01-15T11:30:56;4.20;;;2.80;;
59474;SDS011;45288;51.136;16.928;2023-01-15T11:33:24;4.23;;;3.00;;
59474;SDS011;45288;51.136;16.928;2023-01-15T11:35:53;4.45;;;3.22;;
59474;SDS011;45288;51.136;16.928;2023-01-15T11:38:26;4.32;;;3.15;;
59474;SDS011;45288;51.136;16.928;2023-01-15T11:40:53;3.33;;;2.80;;
59474;SDS011;45288;51.136;16.928;2023-01-15T11:43:20;3.70;;;2.85;;
59474;SDS011;45288;51.136;16.928;2023-01-15T11:46:04;3.72;;;2.95;;
59474;SDS011;45288;51.136;16.928;2023-01-15T11:48:48;3.72;;;2.97;;
59474;SDS011;45288;51.136;16.928;2023-01-15T11:51:34;4.10;;;2.92;;
59474;SDS011;45288;51.136;16.928;2023-01-15T11:54:03;3.42;;;3.00;;
59474;SDS011;45288;51.136;16.928;2023-01-15T11:56:32;3.92;;;3.17;;
59474;SDS011;45288;51.136;16.928;2023-01-15T11:59:00;4.57;;;3.07;;
59474;SDS011;45288;51.136;16.928;2023-01-15T12:01:28;4.75;;;3.20;;
59474;SDS011;45288;51.136;16.928;2023-01-15T12:03:55;3.88;;;3.25;;
59474;SDS011;45288;51.136;16.928;2023-01-15T12:06:22;4.55;;;3.45;;
59474;SDS011;45288;51.136;16.928;2023-01-15T12:08:54;8.00;;;4.93;;
59474;SDS011;45288;51.136;16.928;2023-01-15T12:11:25;7.07;;;4.38;;
59474;SDS011;45288;51.136;16.928;2023-01-15T12:26:21;3.30;;;2.20;;
59474;SDS011;45288;51.136;16.928;2023-01-15T12:34:24;4.10;;;2.73;;
59474;SDS011;45288;51.136;16.928;2023-01-15T12:37:03;2.65;;;1.48;;
59474;SDS011;45288;51.136;16.928;2023-01-15T12:42:02;2.42;;;1.50;;
59474;SDS011;45288;51.136;16.928;2023-01-15T12:44:48;3.13;;;1.60;;
59474;SDS011;45288;51.136;16.928;2023-01-15T12:47:53;2.25;;;1.33;;
59474;SDS011;45288;51.136;16.928;2023-01-15T12:50:27;2.53;;;1.55;;
59474;SDS011;45288;51.136;16.928;2023-01-15T12:52:56;2.75;;;1.70;;
59474;SDS011;45288;51.136;16.928;2023-01-15T12:55:26;3.80;;;2.10;;
59474;SDS011;45288;51.136;16.928;2023-01-15T12:57:58;3.38;;;2.28;;
59474;SDS011;45288;51.136;16.928;2023-01-15T13:00:26;5.15;;;2.65;;
59474;SDS011;45288;51.136;16.928;2023-01-15T13:08:00;5.65;;;3.55;;
59474;SDS011;45288;51.136;16.928;2023-01-15T13:10:29;5.57;;;3.53;;
59474;SDS011;45288;51.136;16.928;2023-01-15T13:13:20;7.57;;;5.07;;
59474;SDS011;45288;51.136;16.928;2023-01-15T13:20:47;14.43;;;7.07;;
59474;SDS011;45288;51.136;16.928;2023-01-15T13:31:08;7.97;;;4.50;;
59474;SDS011;45288;51.136;16.928;2023-01-15T13:33:43;6.38;;;3.90;;
59474;SDS011;45288;51.136;16.928;2023-01-15T13:38:40;9.98;;;6.55;;
59474;SDS011;45288;51.136;16.928;2023-01-15T13:41:07;10.65;;;7.57;;
59474;SDS011;45288;51.136;16.928;2023-01-15T13:43:34;10.48;;;6.55;;
59474;SDS011;45288;51.136;16.928;2023-01-15T13:46:04;7.93;;;4.45;;
59474;SDS011;45288;51.136;16.928;2023-01-15T13:48:41;6.65;;;4.50;;
59474;SDS011;45288;51.136;16.928;2023-01-15T13:51:18;8.18;;;5.75;;
59474;SDS011;45288;51.136;16.928;2023-01-15T13:53:47;8.35;;;5.43;;
59474;SDS011;45288;51.136;16.928;2023-01-15T13:56:23;12.25;;;6.45;;
59474;SDS011;45288;51.136;16.928;2023-01-15T13:58:56;12.32;;;6.70;;
59474;SDS011;45288;51.136;16.928;2023-01-15T14:01:22;9.10;;;5.30;;
59474;SDS011;45288;51.136;16.928;2023-01-15T14:04:31;12.35;;;5.97;;
59474;SDS011;45288;51.136;16.928;2023-01-15T14:22:37;9.88;;;5.00;;
59474;SDS011;45288;51.136;16.928;2023-01-15T14:35:22;27.07;;;11.97;;
59474;SDS011;45288;51.136;16.928;2023-01-15T14:37:52;26.67;;;12.98;;
59474;SDS011;45288;51.136;16.928;2023-01-15T14:40:20;18.95;;;10.90;;
59474;SDS011;45288;51.136;16.928;2023-01-15T14:42:46;14.13;;;8.80;;
59474;SDS011;45288;51.136;16.928;2023-01-15T14:47:56;11.90;;;6.90;;
59474;SDS011;45288;51.136;16.928;2023-01-15T14:52:53;8.23;;;5.90;;
59474;SDS011;45288;51.136;16.928;2023-01-15T14:55:19;8.73;;;6.10;;
59474;SDS011;45288;51.136;16.928;2023-01-15T14:57:48;9.18;;;6.50;;
59474;SDS011;45288;51.136;16.928;2023-01-15T15:00:16;9.10;;;6.95;;
59474;SDS011;45288;51.136;16.928;2023-01-15T15:02:42;10.48;;;7.22;;
59474;SDS011;45288;51.136;16.928;2023-01-15T15:05:17;8.93;;;6.60;;
59474;SDS011;45288;51.136;16.928;2023-01-15T15:07:44;8.30;;;6.13;;
59474;SDS011;45288;51.136;16.928;2023-01-15T15:12:48;5.18;;;4.30;;
59474;SDS011;45288;51.136;16.928;2023-01-15T15:18:01;6.07;;;4.20;;
59474;SDS011;45288;51.136;16.928;2023-01-15T15:23:14;12.35;;;6.95;;
59474;SDS011;45288;51.136;16.928;2023-01-15T15:25:40;11.52;;;7.93;;
59474;SDS011;45288;51.136;16.928;2023-01-15T15:28:10;12.52;;;8.45;;
59474;SDS011;45288;51.136;16.928;2023-01-15T15:30:39;13.38;;;7.97;;
59474;SDS011;45288;51.136;16.928;2023-01-15T15:33:05;9.10;;;6.30;;
59474;SDS011;45288;51.136;16.928;2023-01-15T15:35:31;7.97;;;5.20;;
59474;SDS011;45288;51.136;16.928;2023-01-15T15:38:02;8.13;;;5.40;;
59474;SDS011;45288;51.136;16.928;2023-01-15T15:40:32;6.53;;;4.50;;
59474;SDS011;45288;51.136;16.928;2023-01-15T15:43:09;9.93;;;6.28;;
59474;SDS011;45288;51.136;16.928;2023-01-15T15:45:55;8.93;;;5.95;;
59474;SDS011;45288;51.136;16.928;2023-01-15T15:48:40;6.07;;;4.30;;
59474;SDS011;45288;51.136;16.928;2023-01-15T15:54:01;6.50;;;4.22;;
59474;SDS011;45288;51.136;16.928;2023-01-15T15:56:27;10.20;;;5.70;;
59474;SDS011;45288;51.136;16.928;2023-01-15T15:58:52;9.82;;;5.85;;
59474;SDS011;45288;51.136;16.928;2023-01-15T16:01:19;9.40;;;6.28;;
59474;SDS011;45288;51.136;16.928;2023-01-15T16:03:46;10.67;;;6.57;;
59474;SDS011;45288;51.136;16.928;2023-01-15T16:06:16;9.35;;;6.43;;
59474;SDS011;45288;51.136;16.928;2023-01-15T16:08:50;8.82;;;6.20;;
59474;SDS011;45288;51.136;16.928;2023-01-15T16:11:15;9.37;;;6.60;;
59474;SDS011;45288;51.136;16.928;2023-01-15T16:13:43;11.13;;;7.53;;
59474;SDS011;45288;51.136;16.928;2023-01-15T16:16:09;11.63;;;7.47;;
59474;SDS011;45288;51.136;16.928;2023-01-15T16:18:42;10.98;;;8.13;;
59474;SDS011;45288;51.136;16.928;2023-01-15T16:21:44;14.82;;;9.27;;
59474;SDS011;45288;51.136;16.928;2023-01-15T16:24:04;18.15;;;9.63;;
59474;SDS011;45288;51.136;16.928;2023-01-15T16:29:03;13.55;;;9.00;;
59474;SDS011;45288;51.136;16.928;2023-01-15T16:31:36;12.57;;;8.55;;
59474;SDS011;45288;51.136;16.928;2023-01-15T16:34:02;12.27;;;8.00;;
59474;SDS011;45288;51.136;16.928;2023-01-15T16:36:35;11.20;;;8.07;;
59474;SDS011;45288;51.136;16.928;2023-01-15T16:39:02;10.23;;;7.32;;
59474;SDS011;45288;51.136;16.928;2023-01-15T16:41:31;10.05;;;7.40;;
59474;SDS011;45288;51.136;16.928;2023-01-15T16:44:00;10.35;;;7.30;;
59474;SDS011;45288;51.136;16.928;2023-01-15T16:46:34;9.77;;;6.90;;
59474;SDS011;45288;51.136;16.928;2023-01-15T16:52:33;17.50;;;10.98;;
59474;SDS011;45288;51.136;16.928;2023-01-15T16:54:49;24.75;;;13.93;;